Grassy Plains, Canada
Current Conditions -  °F | °C
As of 10:00 PM on Saturday 22 Nov 2014 (Local Time) from CYYD Reporting Station
Few Clouds Few Clouds  
Wind Chill: 27°   Ceiling: Unl
Heat Index: 34°   Visibility: 9mi
Dew Point: 32°   Wind: 8mph
Humidity: 93%   Direction: 150°SSE
Pressure: 29.6"   Gusts: NA
Location:  53.95°N, 125.88°W
Report Text: CYYD 230600Z AUTO 15007KT 9SM FEW070 01/M00 A2960 RMK SLP042
Loading
Personal Weather Stations






























Interactive Weather Map New forecast layout! Learn more

10-Day Weather Forecast

Advertisements
Track Severe Weather on mobile